createdAt,value
2024-01-03T00:00:49.811Z,3.72
2024-01-03T00:03:18.049Z,3.71
2024-01-03T00:05:46.494Z,3.71
2024-01-03T00:08:19.614Z,3.71
2024-01-03T00:10:51.148Z,3.73
2024-01-03T00:13:33.940Z,3.74
2024-01-03T00:16:00.942Z,3.72
2024-01-03T00:18:37.521Z,3.73
2024-01-03T00:21:07.343Z,3.74
2024-01-03T00:23:47.965Z,3.77
2024-01-03T00:26:15.219Z,3.76
2024-01-03T00:28:42.855Z,3.76
2024-01-03T00:31:39.359Z,3.77
2024-01-03T00:34:21.875Z,3.83
2024-01-03T00:36:50.036Z,3.80
2024-01-03T00:39:24.413Z,3.83
2024-01-03T00:41:51.452Z,3.85
2024-01-03T00:44:18.318Z,3.79
2024-01-03T00:46:45.463Z,3.80
2024-01-03T00:49:16.119Z,3.83
2024-01-03T00:51:49.849Z,3.85
2024-01-03T00:54:18.561Z,3.84
2024-01-03T00:56:47.013Z,3.83
2024-01-03T00:59:14.379Z,3.85
2024-01-03T01:01:42.318Z,3.84
2024-01-03T01:04:09.951Z,3.84
2024-01-03T01:06:37.531Z,3.84
2024-01-03T01:09:05.804Z,3.86
2024-01-03T01:11:32.795Z,3.84
2024-01-03T01:13:59.772Z,3.86
2024-01-03T01:16:26.672Z,3.89
2024-01-03T01:18:53.724Z,3.92
2024-01-03T01:21:20.719Z,3.92
2024-01-03T01:23:48.529Z,3.93
2024-01-03T01:26:15.702Z,4.02
2024-01-03T01:28:42.492Z,3.99
2024-01-03T01:31:09.495Z,4.04
2024-01-03T01:33:36.654Z,4.02
2024-01-03T01:36:03.938Z,4.00
2024-01-03T01:38:30.917Z,4.02
2024-01-03T01:40:57.765Z,4.02
2024-01-03T01:43:24.641Z,4.05
2024-01-03T01:45:51.525Z,4.05
2024-01-03T01:48:19.732Z,4.04
2024-01-03T01:50:46.820Z,4.01
2024-01-03T01:53:15.789Z,4.00
2024-01-03T01:55:43.295Z,4.01
2024-01-03T01:58:10.912Z,4.06
2024-01-03T02:00:39.932Z,4.06
2024-01-03T02:03:09.038Z,4.06
2024-01-03T02:05:39.054Z,4.05
2024-01-03T02:08:10.674Z,4.03
2024-01-03T02:10:38.116Z,4.06
2024-01-03T02:13:05.121Z,4.07
2024-01-03T02:15:32.020Z,4.07
2024-01-03T02:18:00.850Z,4.09
2024-01-03T02:20:34.650Z,4.14
2024-01-03T02:23:02.045Z,4.21
2024-01-03T02:25:28.912Z,4.31
2024-01-03T02:27:55.742Z,4.26
2024-01-03T02:30:23.004Z,4.30
2024-01-03T02:32:50.139Z,4.28
2024-01-03T02:35:17.705Z,4.20
2024-01-03T02:37:44.775Z,4.23
2024-01-03T02:40:12.155Z,4.22
2024-01-03T02:42:38.995Z,4.21
2024-01-03T02:45:06.335Z,4.30
2024-01-03T02:47:33.327Z,4.37
2024-01-03T02:50:00.944Z,4.36
2024-01-03T02:52:28.060Z,4.34
2024-01-03T02:54:55.004Z,4.34
2024-01-03T02:57:21.893Z,4.33
2024-01-03T02:59:48.796Z,4.32
2024-01-03T03:02:15.640Z,4.34
2024-01-03T03:04:42.530Z,4.37
2024-01-03T03:07:09.440Z,4.36
2024-01-03T03:09:36.362Z,4.42
2024-01-03T03:12:03.297Z,4.37
2024-01-03T03:14:30.184Z,4.38
2024-01-03T03:16:57.061Z,4.41
2024-01-03T03:19:23.991Z,4.42
2024-01-03T03:21:50.952Z,4.41
2024-01-03T03:24:17.836Z,4.45
2024-01-03T03:26:44.703Z,4.47
2024-01-03T03:29:11.605Z,4.46
2024-01-03T03:31:38.417Z,4.49
2024-01-03T03:34:05.445Z,4.48
2024-01-03T03:36:32.393Z,4.51
2024-01-03T03:38:59.280Z,4.53
2024-01-03T03:41:26.190Z,4.76
2024-01-03T03:43:53.043Z,4.61
2024-01-03T03:46:20.024Z,4.58
2024-01-03T03:48:47.096Z,4.53
2024-01-03T03:51:14.141Z,4.68
2024-01-03T03:53:40.982Z,4.95
2024-01-03T03:56:07.883Z,4.78
2024-01-03T03:58:34.796Z,4.68
2024-01-03T04:01:01.763Z,4.68
2024-01-03T04:03:28.625Z,4.67
2024-01-03T04:05:55.665Z,4.65
2024-01-03T04:08:22.706Z,4.67
2024-01-03T04:10:49.546Z,4.68
2024-01-03T04:13:16.452Z,4.74
2024-01-03T04:15:43.197Z,4.74
2024-01-03T04:18:10.294Z,4.77
2024-01-03T04:20:37.304Z,4.79
2024-01-03T04:23:04.365Z,4.83
2024-01-03T04:25:31.138Z,4.86
2024-01-03T04:27:58.043Z,4.94
2024-01-03T04:30:24.946Z,4.95
2024-01-03T04:32:51.899Z,5.00
2024-01-03T04:35:19.011Z,5.21
2024-01-03T04:37:45.869Z,5.17
2024-01-03T04:40:13.112Z,5.11
2024-01-03T04:42:40.166Z,5.12
2024-01-03T04:45:07.240Z,5.32
2024-01-03T04:47:34.444Z,5.22
2024-01-03T04:50:01.804Z,5.33
2024-01-03T04:52:28.740Z,5.51
2024-01-03T04:54:55.566Z,5.42
2024-01-03T04:57:22.685Z,5.55
2024-01-03T04:59:49.612Z,5.51
2024-01-03T05:02:16.509Z,5.46
2024-01-03T05:04:43.542Z,5.48
2024-01-03T05:07:10.378Z,5.48
2024-01-03T05:09:37.275Z,5.55
2024-01-03T05:12:04.791Z,5.56
2024-01-03T05:14:32.825Z,5.53
2024-01-03T05:16:59.956Z,5.52
2024-01-03T05:19:29.651Z,5.56
2024-01-03T05:21:56.587Z,5.56
2024-01-03T05:24:23.446Z,5.64
2024-01-03T05:26:50.440Z,5.89
2024-01-03T05:29:17.476Z,5.90
2024-01-03T05:31:44.522Z,5.85
2024-01-03T05:34:12.135Z,5.85
2024-01-03T05:36:39.137Z,6.06
2024-01-03T05:39:06.189Z,5.89
2024-01-03T05:41:33.190Z,6.37
2024-01-03T05:44:00.141Z,6.16
2024-01-03T05:46:26.953Z,6.51
2024-01-03T05:48:53.949Z,6.31
2024-01-03T05:51:22.312Z,6.42
2024-01-03T05:53:50.079Z,6.57
2024-01-03T05:56:17.505Z,6.34
2024-01-03T05:58:44.690Z,6.70
2024-01-03T06:01:11.858Z,6.73
2024-01-03T06:03:39.332Z,6.69
2024-01-03T06:06:06.419Z,6.79
2024-01-03T06:08:34.011Z,6.61
2024-01-03T06:11:00.960Z,6.86
2024-01-03T06:13:28.855Z,6.91
2024-01-03T06:15:55.932Z,6.79
2024-01-03T06:18:23.105Z,6.95
2024-01-03T06:20:50.334Z,6.86
2024-01-03T06:23:17.450Z,6.89
2024-01-03T06:25:44.460Z,6.78
2024-01-03T06:28:12.040Z,6.79
2024-01-03T06:30:39.164Z,6.85
2024-01-03T06:33:07.376Z,6.86
2024-01-03T06:35:34.718Z,6.75
2024-01-03T06:38:01.759Z,6.85
2024-01-03T06:40:28.564Z,6.84
2024-01-03T06:42:55.683Z,6.71
2024-01-03T06:45:22.599Z,6.78
2024-01-03T06:47:49.589Z,6.86
2024-01-03T06:50:16.762Z,6.84
2024-01-03T06:52:43.688Z,6.86
2024-01-03T06:55:10.570Z,6.87
2024-01-03T06:57:37.377Z,7.05
2024-01-03T07:00:04.783Z,6.86
2024-01-03T07:02:31.771Z,6.90
2024-01-03T07:04:58.785Z,7.09
2024-01-03T07:07:25.683Z,7.23
2024-01-03T07:09:53.979Z,7.02
2024-01-03T07:12:20.910Z,7.32
2024-01-03T07:14:47.832Z,7.12
2024-01-03T07:17:16.906Z,6.91
2024-01-03T07:19:43.989Z,7.01
2024-01-03T07:22:10.884Z,6.95
2024-01-03T07:24:40.556Z,6.81
2024-01-03T07:27:08.136Z,6.89
2024-01-03T07:29:35.288Z,6.85
2024-01-03T07:32:02.168Z,6.70
2024-01-03T07:34:29.235Z,6.98
2024-01-03T07:36:56.193Z,6.82
2024-01-03T07:39:23.110Z,6.89
2024-01-03T07:41:50.827Z,7.08
2024-01-03T07:44:17.759Z,6.82
2024-01-03T07:46:44.627Z,6.85
2024-01-03T07:49:11.850Z,6.83
2024-01-03T07:51:40.193Z,7.03
2024-01-03T07:54:08.804Z,6.88
2024-01-03T07:56:36.042Z,6.94
2024-01-03T07:59:03.004Z,6.83
2024-01-03T08:01:29.955Z,6.80
2024-01-03T08:03:57.112Z,6.95
2024-01-03T08:06:24.720Z,6.82
2024-01-03T08:08:51.746Z,6.93
2024-01-03T08:11:18.955Z,6.98
2024-01-03T08:13:46.094Z,7.04
2024-01-03T08:16:13.159Z,7.10
2024-01-03T08:18:40.728Z,7.04
2024-01-03T08:21:08.239Z,7.02
2024-01-03T08:23:35.475Z,6.94
2024-01-03T08:26:11.752Z,7.03
2024-01-03T08:28:41.631Z,7.10
2024-01-03T08:31:18.722Z,7.02
2024-01-03T08:33:47.583Z,7.10
2024-01-03T08:36:16.314Z,7.10
2024-01-03T08:38:43.582Z,6.94
2024-01-03T08:41:19.009Z,6.97
2024-01-03T08:43:46.924Z,7.00
2024-01-03T08:46:14.185Z,6.83
2024-01-03T08:48:45.103Z,6.97
2024-01-03T08:51:18.045Z,6.91
2024-01-03T08:53:46.320Z,6.86
2024-01-03T08:56:14.767Z,6.95
2024-01-03T08:58:42.942Z,6.84
2024-01-03T09:01:22.060Z,6.93
2024-01-03T09:03:49.847Z,7.01
2024-01-03T09:06:22.333Z,6.86
2024-01-03T09:08:52.291Z,6.86
2024-01-03T09:11:20.516Z,6.96
2024-01-03T09:13:50.735Z,7.12
2024-01-03T09:16:23.704Z,7.00
2024-01-03T09:18:51.492Z,7.07
2024-01-03T09:21:18.791Z,6.94
2024-01-03T09:23:45.743Z,6.88
2024-01-03T09:26:13.398Z,6.88
2024-01-03T09:28:43.426Z,6.85
2024-01-03T09:31:10.786Z,7.07
2024-01-03T09:33:39.299Z,7.17
2024-01-03T09:36:06.855Z,7.05
2024-01-03T09:38:33.879Z,7.01
2024-01-03T09:41:01.582Z,7.28
2024-01-03T09:43:28.643Z,6.99
2024-01-03T09:45:56.239Z,7.01
2024-01-03T09:48:24.101Z,7.07
2024-01-03T09:50:52.007Z,7.07
2024-01-03T09:53:20.607Z,7.10
2024-01-03T09:55:47.484Z,7.13
2024-01-03T09:58:14.379Z,7.10
2024-01-03T10:00:41.170Z,7.12
2024-01-03T10:03:09.854Z,7.03
2024-01-03T10:05:37.180Z,7.07
2024-01-03T10:08:19.037Z,7.03
2024-01-03T10:10:47.614Z,7.04
2024-01-03T10:13:16.295Z,7.13
2024-01-03T10:15:44.291Z,7.09
2024-01-03T10:18:15.866Z,7.08
2024-01-03T10:20:45.084Z,7.08
2024-01-03T10:23:14.352Z,7.18
2024-01-03T10:25:46.019Z,7.10
2024-01-03T10:28:17.097Z,7.02
2024-01-03T10:30:51.803Z,7.04
2024-01-03T10:33:19.216Z,7.20
2024-01-03T10:35:46.633Z,7.28
2024-01-03T10:38:16.765Z,7.04
2024-01-03T10:40:45.483Z,7.26
2024-01-03T10:43:12.778Z,7.27
2024-01-03T10:45:39.708Z,7.25
2024-01-03T10:48:07.766Z,7.15
2024-01-03T10:50:36.080Z,7.09
2024-01-03T10:53:09.906Z,7.11
2024-01-03T10:55:39.181Z,7.19
2024-01-03T10:58:22.151Z,7.28
2024-01-03T11:00:59.314Z,7.15
2024-01-03T11:03:47.963Z,7.14
2024-01-03T11:06:24.074Z,7.17
2024-01-03T11:08:54.036Z,7.15
2024-01-03T11:11:34.264Z,7.16
2024-01-03T11:14:02.682Z,7.23
2024-01-03T11:16:38.206Z,7.33
2024-01-03T11:19:06.703Z,7.23
2024-01-03T11:21:36.721Z,7.37
2024-01-03T11:24:04.570Z,7.23
2024-01-03T11:26:53.844Z,7.18
2024-01-03T11:29:51.418Z,7.19
2024-01-03T11:32:35.749Z,7.20
2024-01-03T11:35:08.177Z,7.31
2024-01-03T11:37:36.741Z,7.34
2024-01-03T11:40:05.633Z,7.28
2024-01-03T11:42:35.162Z,7.35
2024-01-03T11:45:13.669Z,7.33
2024-01-03T11:47:41.776Z,7.28
2024-01-03T11:50:10.838Z,7.35
2024-01-03T11:52:39.429Z,7.30
2024-01-03T11:55:14.281Z,7.32
2024-01-03T11:57:46.074Z,7.34
2024-01-03T12:00:15.617Z,7.37
2024-01-03T12:02:56.548Z,7.39
2024-01-03T12:05:25.651Z,7.44
2024-01-03T12:07:54.312Z,7.56
2024-01-03T12:10:22.590Z,7.48
2024-01-03T12:12:52.585Z,7.50
2024-01-03T12:18:09.552Z,7.60
2024-01-03T12:20:37.917Z,7.65
2024-01-03T12:23:12.893Z,7.58
2024-01-03T12:25:40.868Z,7.78
2024-01-03T12:28:08.269Z,7.85
2024-01-03T12:30:35.777Z,7.72
2024-01-03T12:33:14.843Z,7.83
2024-01-03T12:35:46.369Z,7.74
2024-01-03T12:38:13.535Z,8.03
2024-01-03T12:40:40.646Z,7.86
2024-01-03T12:43:07.780Z,7.87
2024-01-03T12:45:34.793Z,7.85
2024-01-03T12:48:01.852Z,7.86
2024-01-03T12:50:28.819Z,7.98
2024-01-03T12:52:55.705Z,8.01
2024-01-03T12:55:22.690Z,8.02
2024-01-03T12:57:49.538Z,8.04
2024-01-03T13:00:17.140Z,8.05
2024-01-03T13:02:44.003Z,8.11
2024-01-03T13:05:12.803Z,8.05
2024-01-03T13:07:40.309Z,8.04
2024-01-03T13:10:09.027Z,8.06
2024-01-03T13:12:37.876Z,8.08
2024-01-03T13:15:05.549Z,8.04
2024-01-03T13:17:32.679Z,8.09
2024-01-03T13:20:00.235Z,8.03
2024-01-03T13:22:27.130Z,8.09
2024-01-03T13:24:53.980Z,8.04
2024-01-03T13:27:20.760Z,8.04
2024-01-03T13:29:48.701Z,8.03
2024-01-03T13:32:15.694Z,8.07
2024-01-03T13:34:43.378Z,8.08
2024-01-03T13:37:10.638Z,8.11
2024-01-03T13:39:38.236Z,8.09
2024-01-03T13:42:06.562Z,8.13
2024-01-03T13:44:33.592Z,8.24
2024-01-03T13:47:00.728Z,8.29
2024-01-03T13:49:27.906Z,8.35
2024-01-03T13:51:57.042Z,8.38
2024-01-03T13:54:23.990Z,8.44
2024-01-03T13:56:51.593Z,8.39
2024-01-03T13:59:18.627Z,8.39
2024-01-03T14:01:49.573Z,8.38
2024-01-03T14:04:20.425Z,8.34
2024-01-03T14:06:47.930Z,8.48
2024-01-03T14:09:17.931Z,8.33
2024-01-03T14:11:44.930Z,8.34
2024-01-03T14:14:11.780Z,8.27
2024-01-03T14:16:45.622Z,8.27
2024-01-03T14:19:13.015Z,8.33
2024-01-03T14:21:44.956Z,8.33
2024-01-03T14:24:12.522Z,8.34
2024-01-03T14:26:39.442Z,8.28
2024-01-03T14:29:06.745Z,8.28
2024-01-03T14:31:33.538Z,8.36
2024-01-03T14:34:00.998Z,8.34
2024-01-03T14:36:27.962Z,8.39
2024-01-03T14:38:56.058Z,8.43
2024-01-03T14:41:24.922Z,8.43
2024-01-03T14:44:00.300Z,8.36
2024-01-03T14:46:27.377Z,8.43
2024-01-03T14:48:54.360Z,8.33
2024-01-03T14:51:22.790Z,8.29
2024-01-03T14:53:50.425Z,8.24
2024-01-03T14:56:18.407Z,8.23
2024-01-03T14:58:45.444Z,8.21
2024-01-03T15:01:13.684Z,8.09
2024-01-03T15:03:40.900Z,7.99
2024-01-03T15:06:07.881Z,7.96
2024-01-03T15:08:34.913Z,7.92
2024-01-03T15:11:01.938Z,7.79
2024-01-03T15:13:28.821Z,7.64
2024-01-03T15:15:55.812Z,7.60
2024-01-03T15:18:22.878Z,7.63
2024-01-03T15:20:50.226Z,7.75
2024-01-03T15:23:18.908Z,7.54
2024-01-03T15:25:45.991Z,7.56
2024-01-03T15:28:14.143Z,7.46
2024-01-03T15:30:41.416Z,7.44
2024-01-03T15:33:10.209Z,7.41
2024-01-03T15:35:37.443Z,7.43
2024-01-03T15:38:04.496Z,7.41
2024-01-03T15:40:31.423Z,7.39
2024-01-03T15:43:00.159Z,7.42
2024-01-03T15:45:28.213Z,7.38
2024-01-03T15:47:55.675Z,7.38
2024-01-03T15:50:24.531Z,7.32
2024-01-03T15:52:52.312Z,7.38
2024-01-03T15:55:19.250Z,7.46
2024-01-03T15:57:47.645Z,7.38
2024-01-03T16:00:15.060Z,7.65
2024-01-03T16:02:42.224Z,7.60
2024-01-03T16:05:09.332Z,7.49
2024-01-03T16:07:36.283Z,7.47
2024-01-03T16:10:03.214Z,7.47
2024-01-03T16:12:30.116Z,7.39
2024-01-03T16:14:58.589Z,7.48
2024-01-03T16:17:27.396Z,7.35
2024-01-03T16:19:54.882Z,7.52
2024-01-03T16:22:22.675Z,7.37
2024-01-03T16:24:49.923Z,7.71
2024-01-03T16:27:19.118Z,7.42
2024-01-03T16:29:46.740Z,7.30
2024-01-03T16:32:14.154Z,7.50
2024-01-03T16:34:41.144Z,7.47
2024-01-03T16:37:09.246Z,7.34
2024-01-03T16:39:38.011Z,7.20
2024-01-03T16:42:06.292Z,7.16
2024-01-03T16:44:33.357Z,7.13
2024-01-03T16:47:00.900Z,7.07
2024-01-03T16:49:28.946Z,7.11
2024-01-03T16:52:01.188Z,7.09
2024-01-03T16:54:31.036Z,7.11
2024-01-03T16:56:58.535Z,7.08
2024-01-03T16:59:25.755Z,7.15
2024-01-03T17:01:58.432Z,7.16
2024-01-03T17:04:28.624Z,7.19
2024-01-03T17:06:57.130Z,7.10
2024-01-03T17:09:26.168Z,7.03
2024-01-03T17:11:53.137Z,7.03
2024-01-03T17:14:20.747Z,6.93
2024-01-03T17:16:47.680Z,6.91
2024-01-03T17:19:14.805Z,6.89
2024-01-03T17:21:41.854Z,6.84
2024-01-03T17:24:08.942Z,6.82
2024-01-03T17:26:37.824Z,6.76
2024-01-03T17:29:05.705Z,6.79
2024-01-03T17:31:35.681Z,6.78
2024-01-03T17:34:03.437Z,6.76
2024-01-03T17:36:30.573Z,6.72
2024-01-03T17:38:57.749Z,6.81
2024-01-03T17:41:27.420Z,6.99
2024-01-03T17:43:57.374Z,6.93
2024-01-03T17:46:24.516Z,6.88
2024-01-03T17:48:53.103Z,6.78
2024-01-03T17:51:22.133Z,6.76
2024-01-03T17:53:57.384Z,6.78
2024-01-03T17:56:27.086Z,6.73
2024-01-03T17:58:55.243Z,6.72
2024-01-03T18:01:22.949Z,6.68
2024-01-03T18:03:50.283Z,6.66
2024-01-03T18:06:17.633Z,6.67
2024-01-03T18:08:45.495Z,6.65
2024-01-03T18:11:13.733Z,6.63
2024-01-03T18:13:40.981Z,6.61
2024-01-03T18:16:07.875Z,6.59
2024-01-03T18:18:36.039Z,6.63
2024-01-03T18:21:04.841Z,6.59
2024-01-03T18:23:32.994Z,6.57
2024-01-03T18:26:00.221Z,6.59
2024-01-03T18:28:27.891Z,6.60
2024-01-03T18:30:54.925Z,6.59
2024-01-03T18:33:22.032Z,6.56
2024-01-03T18:35:49.115Z,6.64
2024-01-03T18:38:16.028Z,6.97
2024-01-03T18:40:42.873Z,6.85
2024-01-03T18:43:10.428Z,6.78
2024-01-03T18:45:37.464Z,6.73
2024-01-03T18:48:04.969Z,6.79
2024-01-03T18:50:31.994Z,6.75
2024-01-03T18:52:58.936Z,6.75
2024-01-03T18:55:26.410Z,6.78
2024-01-03T18:57:53.607Z,6.79
2024-01-03T19:00:20.946Z,6.82
2024-01-03T19:02:48.139Z,6.73
2024-01-03T19:05:15.194Z,6.81
2024-01-03T19:07:42.251Z,6.80
2024-01-03T19:10:11.026Z,6.75
2024-01-03T19:12:40.634Z,6.67
2024-01-03T19:15:08.624Z,6.84
2024-01-03T19:17:36.446Z,6.66
2024-01-03T19:20:04.183Z,6.75
2024-01-03T19:22:37.473Z,6.79
2024-01-03T19:25:08.033Z,6.68
2024-01-03T19:27:35.326Z,6.80
2024-01-03T19:30:04.244Z,6.80
2024-01-03T19:32:33.006Z,6.71
2024-01-03T19:35:00.213Z,6.70
2024-01-03T19:37:27.286Z,6.63
2024-01-03T19:39:54.699Z,6.66
2024-01-03T19:42:21.867Z,6.68
2024-01-03T19:44:49.034Z,6.64
2024-01-03T19:47:16.295Z,6.71
2024-01-03T19:49:44.150Z,6.63
2024-01-03T19:52:11.198Z,6.65
2024-01-03T19:54:38.089Z,6.63
2024-01-03T19:57:05.495Z,6.63
2024-01-03T19:59:32.441Z,6.70
2024-01-03T20:01:59.584Z,6.65
2024-01-03T20:04:26.599Z,6.65
2024-01-03T20:06:53.988Z,6.68
2024-01-03T20:09:21.075Z,6.73
2024-01-03T20:11:48.967Z,6.71
2024-01-03T20:14:16.124Z,6.71
2024-01-03T20:16:43.234Z,6.68
2024-01-03T20:19:11.042Z,6.69
2024-01-03T20:21:43.237Z,6.68
2024-01-03T20:24:10.467Z,6.98
2024-01-03T20:26:40.740Z,6.93
2024-01-03T20:29:08.748Z,6.85
2024-01-03T20:31:36.210Z,6.75
2024-01-03T20:34:05.618Z,6.73
2024-01-03T20:36:33.031Z,6.74
2024-01-03T20:39:05.628Z,6.70
2024-01-03T20:41:32.767Z,6.68
2024-01-03T20:44:00.722Z,6.67
2024-01-03T20:46:30.632Z,6.67
2024-01-03T20:48:57.720Z,6.68
2024-01-03T20:51:24.659Z,6.66
2024-01-03T20:53:54.185Z,6.65
2024-01-03T20:56:21.512Z,6.67
2024-01-03T20:58:48.364Z,6.67
2024-01-03T21:01:15.372Z,6.68
2024-01-03T21:03:43.757Z,6.69
2024-01-03T21:06:10.937Z,6.65
2024-01-03T21:08:38.604Z,6.66
2024-01-03T21:11:07.743Z,6.67
2024-01-03T21:13:35.498Z,6.71
2024-01-03T21:16:02.684Z,6.70
2024-01-03T21:18:29.939Z,6.72
2024-01-03T21:20:57.263Z,6.68
2024-01-03T21:23:24.260Z,6.65
2024-01-03T21:25:51.270Z,6.67
2024-01-03T21:28:18.730Z,6.63
2024-01-03T21:30:46.290Z,6.61
2024-01-03T21:33:15.089Z,6.61
2024-01-03T21:35:43.868Z,6.59
2024-01-03T21:38:11.088Z,6.59
2024-01-03T21:40:38.053Z,6.59
2024-01-03T21:43:05.188Z,6.61
2024-01-03T21:45:32.072Z,6.64
2024-01-03T21:47:59.256Z,6.63
2024-01-03T21:50:26.175Z,6.61
2024-01-03T21:52:55.081Z,6.60
2024-01-03T21:55:22.961Z,6.60
2024-01-03T21:57:50.228Z,6.61
2024-01-03T22:00:18.042Z,6.64
2024-01-03T22:02:46.131Z,6.65
2024-01-03T22:05:14.928Z,6.63
2024-01-03T22:07:42.118Z,6.61
2024-01-03T22:10:16.198Z,6.64
2024-01-03T22:12:49.738Z,6.60
2024-01-03T22:15:17.903Z,6.59
2024-01-03T22:17:45.792Z,6.60
2024-01-03T22:20:13.843Z,6.57
2024-01-03T22:22:41.664Z,6.56
2024-01-03T22:25:09.770Z,6.58
2024-01-03T22:27:37.594Z,6.57
2024-01-03T22:30:05.729Z,6.55
2024-01-03T22:32:34.218Z,6.59
2024-01-03T22:35:01.425Z,6.58
2024-01-03T22:37:28.899Z,6.57
2024-01-03T22:39:57.283Z,6.54
2024-01-03T22:42:24.781Z,6.52
2024-01-03T22:44:53.058Z,6.52
2024-01-03T22:47:20.439Z,6.50
2024-01-03T22:49:47.528Z,6.48
2024-01-03T22:52:14.485Z,6.50
2024-01-03T22:54:41.508Z,6.51
2024-01-03T22:57:08.428Z,6.55
2024-01-03T22:59:35.765Z,6.58
2024-01-03T23:02:03.789Z,6.54
2024-01-03T23:04:31.847Z,6.54
2024-01-03T23:06:58.866Z,6.55
2024-01-03T23:09:25.974Z,6.54
2024-01-03T23:11:52.930Z,6.57
2024-01-03T23:14:20.123Z,6.56
2024-01-03T23:16:47.033Z,6.56
2024-01-03T23:19:14.223Z,6.48
2024-01-03T23:21:42.300Z,6.42
2024-01-03T23:24:09.347Z,6.36
2024-01-03T23:26:36.470Z,6.39
2024-01-03T23:29:03.437Z,6.33
2024-01-03T23:31:45.476Z,6.33
2024-01-03T23:34:27.721Z,6.30
2024-01-03T23:37:09.722Z,6.38
2024-01-03T23:39:51.513Z,6.28
2024-01-03T23:42:33.296Z,6.26
2024-01-03T23:45:15.683Z,6.23
2024-01-03T23:47:57.608Z,6.23
2024-01-03T23:50:39.692Z,6.38
2024-01-03T23:53:21.415Z,6.61
2024-01-03T23:56:07.193Z,6.49
2024-01-03T23:58:52.544Z,6.31
